Time;durP1;ratioP1;P1;durP2;ratioP2;P2;SDS_P1;SDS_P2;PMS_P1;PMS_P2;Temp;Humidity;BMP_temperature;BMP_pressure;BME280_temperature;BME280_humidity;BME280_pressure;Samples;Min_cycle;Max_cycle;Signal;HPM_P1;HPM_P2
2022/01/25 00:09:17;;;;;;;4.90;2.30;;;-1.40;1.40;;;-0.37;100.00;96784.51;646447;216;31590;-77
2022/01/25 00:26:19;;;;;;;1.62;1.23;;;-1.30;1.40;;;-0.41;100.00;96781.34;647453;216;31557;-73
2022/01/25 00:28:52;;;;;;;2.50;1.92;;;-1.30;1.40;;;-0.35;100.00;96782.81;642550;217;31617;-77
2022/01/25 00:31:30;;;;;;;2.27;2.17;;;-1.30;1.40;;;-0.32;100.00;96777.60;646278;216;31597;-77
2022/01/25 00:35:51;;;;;;;2.50;2.00;;;-1.30;1.40;;;-0.40;100.00;96777.77;645849;216;31575;-76
2022/01/25 00:38:34;;;;;;;3.15;1.87;;;-1.30;1.40;;;-0.44;100.00;96768.95;647561;216;32073;-77
2022/01/25 00:41:16;;;;;;;1.90;1.80;;;-1.30;1.40;;;-0.41;100.00;96765.84;647769;216;31538;-77
2022/01/25 00:44:05;;;;;;;2.30;2.10;;;-1.30;1.40;;;-0.22;100.00;96773.44;647244;216;31625;-74
2022/01/25 00:46:52;;;;;;;2.83;2.62;;;-1.20;1.40;;;-0.28;100.00;96770.09;646678;212;31558;-77
2022/01/25 00:49:37;;;;;;;2.30;2.10;;;-1.30;1.40;;;-0.17;100.00;96770.39;620518;225;42533;-77
2022/01/25 00:52:23;;;;;;;3.00;1.40;;;-1.30;1.40;;;-0.14;100.00;96766.01;618539;223;32568;-77
2022/01/25 00:55:02;;;;;;;1.92;1.08;;;-1.20;1.40;;;-0.06;100.00;96765.70;647156;216;31578;-77
2022/01/25 00:57:42;;;;;;;2.03;1.20;;;-1.20;1.40;;;-0.17;100.00;96771.45;648715;214;42875;-77
2022/01/25 01:00:27;;;;;;;1.60;1.13;;;-1.30;1.40;;;-0.39;100.00;96766.23;647780;212;32144;-77
2022/01/25 01:03:09;;;;;;;2.70;2.30;;;-1.30;1.40;;;-0.30;100.00;96764.20;647146;216;32131;-76
2022/01/25 01:05:53;;;;;;;2.70;1.50;;;-1.30;1.40;;;-0.02;100.00;96758.79;646133;212;31516;-75
2022/01/25 01:08:34;;;;;;;2.77;1.80;;;-1.20;1.40;;;-0.16;100.00;96757.66;646735;216;31756;-74
2022/01/25 01:11:28;;;;;;;2.10;1.02;;;-1.30;1.40;;;-0.17;100.00;96757.22;646629;216;31783;-77
2022/01/25 01:14:17;;;;;;;1.60;0.80;;;-1.30;1.40;;;-0.10;100.00;96763.89;647505;216;31888;-77
2022/01/25 01:17:12;;;;;;;2.45;2.12;;;-1.20;1.40;;;-0.05;100.00;96767.95;619948;225;42539;-77
2022/01/25 01:29:04;;;;;;;2.60;2.40;;;-1.10;1.40;;;-0.02;100.00;96765.70;647246;212;42195;-75
2022/01/25 01:31:50;;;;;;;3.50;1.90;;;-1.20;1.40;;;-0.23;100.00;96765.83;647019;212;31480;-74
2022/01/25 01:36:30;;;;;;;3.28;2.22;;;-1.20;1.40;;;-0.03;100.00;96763.53;646441;216;31554;-76
2022/01/25 01:44:26;;;;;;;4.90;2.40;;;-1.10;1.40;;;0.08;100.00;96762.13;647593;216;42745;-77
2022/01/25 01:47:11;;;;;;;2.70;2.28;;;-1.10;1.40;;;-0.03;100.00;96763.17;646846;212;31965;-78
2022/01/25 01:49:49;;;;;;;2.25;2.12;;;-1.20;1.40;;;-0.10;100.00;96764.56;648397;216;31851;-77
2022/01/25 01:52:31;;;;;;;1.20;1.07;;;-1.30;1.40;;;-0.15;100.00;96768.70;647539;212;32039;-77
2022/01/25 01:57:59;;;;;;;2.50;1.80;;;-1.20;1.40;;;0.20;100.00;96771.66;618826;225;31918;-76
2022/01/25 02:00:44;;;;;;;3.20;1.00;;;-1.10;1.40;;;0.01;100.00;96773.69;647321;216;42185;-76
2022/01/25 02:03:26;;;;;;;2.30;0.75;;;-1.20;1.40;;;-0.20;100.00;96775.00;647365;216;31606;-77
2022/01/25 02:06:09;;;;;;;3.10;1.52;;;-1.20;1.40;;;-0.33;100.00;96774.63;646198;212;31721;-75
2022/01/25 02:08:51;;;;;;;3.30;2.47;;;-1.30;1.40;;;-0.37;100.00;96775.17;647010;212;32243;-74
2022/01/25 02:11:35;;;;;;;2.40;1.90;;;-1.30;1.40;;;-0.31;100.00;96772.61;646963;216;31565;-77
2022/01/25 02:14:17;;;;;;;2.62;1.10;;;-1.30;1.40;;;-0.12;100.00;96772.41;646150;212;31590;-77
2022/01/25 02:17:09;;;;;;;3.33;1.05;;;-1.20;1.40;;;-0.04;100.00;96771.27;647004;212;31600;-76
2022/01/25 02:22:33;;;;;;;3.10;2.67;;;-1.20;1.40;;;-0.30;100.00;96768.48;647023;212;42234;-77
2022/01/25 02:25:11;;;;;;;6.90;1.48;;;-1.20;1.40;;;-0.28;100.00;96765.83;647774;216;31530;-77
2022/01/25 02:30:37;;;;;;;2.37;1.77;;;-1.30;1.40;;;-0.42;100.00;96755.33;647400;216;32163;-76
2022/01/25 02:35:54;;;;;;;0.60;0.60;;;-1.30;1.40;;;-0.32;100.00;96748.64;648047;212;31588;-77
2022/01/25 02:38:36;;;;;;;5.37;2.08;;;-1.30;1.40;;;-0.53;100.00;96750.12;646497;216;42206;-77
2022/01/25 02:41:21;;;;;;;3.03;1.30;;;-1.30;1.40;;;-0.43;100.00;96744.72;648234;213;42932;-77
2022/01/25 02:44:04;;;;;;;1.75;1.65;;;-1.30;1.40;;;-0.63;100.00;96744.50;645996;212;31935;-76
2022/01/25 02:49:22;;;;;;;1.98;1.58;;;-1.30;1.40;;;-0.29;100.00;96742.50;619572;226;33040;-76
2022/01/25 02:52:05;;;;;;;1.15;1.05;;;-1.20;1.40;;;-0.37;100.00;96748.06;620569;226;32038;-76
2022/01/25 02:54:46;;;;;;;2.40;1.50;;;-1.30;1.40;;;-0.33;100.00;96741.99;646802;216;31577;-77
2022/01/25 02:57:30;;;;;;;2.90;2.70;;;-1.30;1.40;;;-0.18;100.00;96747.08;631415;222;31812;-76
2022/01/25 03:00:18;;;;;;;2.70;2.60;;;-1.20;1.40;;;-0.06;100.00;96740.77;646582;213;31612;-77
2022/01/25 03:03:00;;;;;;;2.50;2.30;;;-1.20;1.40;;;-0.12;100.00;96744.55;647532;216;31555;-77
2022/01/25 03:05:42;;;;;;;3.00;1.85;;;-1.20;1.40;;;-0.20;100.00;96733.98;644003;216;31637;-77
2022/01/25 03:08:23;;;;;;;2.53;2.33;;;-1.20;1.40;;;-0.29;100.00;96734.19;647220;215;31601;-77
2022/01/25 03:11:06;;;;;;;3.05;1.85;;;-1.20;1.40;;;-0.20;100.00;96738.78;647261;216;31775;-78
2022/01/25 03:13:51;;;;;;;2.30;2.10;;;-1.20;1.40;;;-0.11;100.00;96737.41;620129;226;43368;-77
2022/01/25 03:16:46;;;;;;;2.12;1.40;;;-1.20;1.40;;;-0.21;100.00;96736.03;646505;216;31601;-77
2022/01/25 03:22:31;;;;;;;2.20;1.40;;;-1.20;1.40;;;-0.18;100.00;96743.47;646339;212;31563;-77
2022/01/25 03:24:58;;;;;;;2.28;1.70;;;-1.10;1.40;;;0.04;100.00;96753.41;646221;216;31596;-77
2022/01/25 03:27:40;;;;;;;5.10;2.20;;;-1.10;1.40;;;-0.01;100.00;96753.80;619846;222;31890;-76
2022/01/25 03:30:22;;;;;;;2.40;1.00;;;-1.10;1.40;;;-0.20;100.00;96750.55;647230;212;31574;-76
2022/01/25 03:35:51;;;;;;;1.67;1.58;;;-1.10;1.40;;;0.14;100.00;96740.07;647006;216;31556;-77
2022/01/25 03:38:33;;;;;;;2.47;2.28;;;-1.00;1.40;;;0.01;100.00;96735.78;647739;216;31571;-77
2022/01/25 03:41:15;;;;;;;2.10;1.33;;;-1.10;1.40;;;-0.01;100.00;96739.19;618936;226;31900;-77
2022/01/25 03:43:59;;;;;;;3.53;1.08;;;-1.10;1.40;;;-0.22;100.00;96738.36;646539;216;31602;-77
2022/01/25 03:47:03;;;;;;;7.00;2.20;;;-1.10;1.40;;;-0.18;100.00;96741.48;618254;226;32034;-77
2022/01/25 03:52:35;;;;;;;1.40;1.30;;;-1.10;1.40;;;-0.04;100.00;96735.61;646813;216;42163;-75
2022/01/25 03:55:17;;;;;;;2.42;2.22;;;-1.10;1.40;;;-0.16;100.00;96731.00;647365;216;31778;-77
2022/01/25 03:57:58;;;;;;;2.10;2.00;;;-1.10;1.40;;;-0.44;100.00;96727.72;646724;216;32117;-77
2022/01/25 04:00:40;;;;;;;3.10;2.90;;;-1.20;1.40;;;-0.45;100.00;96728.73;646773;216;32108;-77
2022/01/25 04:03:32;;;;;;;4.28;2.78;;;-1.20;1.40;;;-0.51;100.00;96732.99;647256;216;42194;-77
2022/01/25 04:06:06;;;;;;;1.27;1.17;;;-1.30;1.40;;;-0.47;100.00;96737.53;615527;226;42748;-76
2022/01/25 04:08:51;;;;;;;1.77;1.37;;;-1.20;1.40;;;-0.16;100.00;96743.30;646935;216;42163;-77
2022/01/25 04:11:33;;;;;;;2.70;2.10;;;-1.10;1.40;;;-0.13;100.00;96736.36;647128;212;42509;-77
2022/01/25 04:14:17;;;;;;;3.08;2.78;;;-1.10;1.40;;;0.04;100.00;96732.77;646990;216;31761;-77
2022/01/25 04:17:04;;;;;;;5.00;1.70;;;-1.10;1.40;;;-0.06;100.00;96733.89;647625;216;33701;-77
2022/01/25 04:19:56;;;;;;;1.45;1.35;;;-1.00;1.40;;;0.07;100.00;96728.38;631897;222;32456;-74
2022/01/25 04:25:19;;;;;;;1.55;1.35;;;-1.20;1.40;;;0.02;100.00;96726.51;647478;216;31477;-77
2022/01/25 04:28:01;;;;;;;2.97;2.33;;;-1.10;1.40;;;-0.17;100.00;96730.55;646726;216;42784;-77
2022/01/25 04:30:43;;;;;;;2.20;0.90;;;-1.10;1.40;;;-0.10;100.00;96724.02;647550;216;31585;-77
2022/01/25 04:36:24;;;;;;;1.48;1.40;;;-1.30;1.40;;;-0.28;100.00;96714.39;620138;226;32008;-77
2022/01/25 04:49:58;;;;;;;1.40;1.40;;;-1.20;1.40;;;-0.18;100.00;96718.11;647207;216;42163;-74
2022/01/25 04:55:52;;;;;;;4.50;1.80;;;-1.20;1.40;;;-0.34;100.00;96708.33;619425;226;32047;-76
2022/01/25 04:58:36;;;;;;;2.00;1.33;;;-1.20;1.40;;;-0.22;100.00;96705.63;645823;216;31674;-77
2022/01/25 05:06:50;;;;;;;2.40;1.02;;;-1.10;1.40;;;-0.11;100.00;96715.92;614770;226;32242;-76
2022/01/25 05:09:36;;;;;;;4.90;2.50;;;-1.10;1.40;;;-0.31;100.00;96708.20;646494;216;31568;-77
2022/01/25 05:12:17;;;;;;;4.40;1.90;;;-1.20;1.40;;;-0.33;100.00;96705.80;620916;222;42526;-77
2022/01/25 05:15:06;;;;;;;2.25;2.05;;;-1.20;1.40;;;-0.37;100.00;96705.33;646060;212;42188;-76
2022/01/25 05:17:44;;;;;;;2.65;1.87;;;-1.20;1.40;;;-0.51;100.00;96699.28;646553;212;31639;-76
2022/01/25 05:23:15;;;;;;;1.90;1.40;;;-1.40;1.40;;;-0.46;100.00;96694.48;646595;216;42554;-74
2022/01/25 05:25:57;;;;;;;4.70;2.20;;;-1.30;1.40;;;-0.62;100.00;96694.17;646579;216;31537;-76
2022/01/25 05:28:46;;;;;;;4.12;2.40;;;-1.40;1.40;;;-0.58;100.00;96692.52;647778;216;31719;-76
2022/01/25 05:31:27;;;;;;;2.65;2.40;;;-1.40;1.40;;;-0.61;100.00;96696.00;646950;216;33484;-77
2022/01/25 05:35:57;;;;;;;2.22;1.73;;;-1.30;1.40;;;-0.60;100.00;96704.44;647596;213;31563;-77
2022/01/25 05:38:38;;;;;;;1.95;1.65;;;-1.40;1.40;;;-0.72;100.00;96709.33;618832;226;31937;-76
2022/01/25 05:41:29;;;;;;;2.20;2.10;;;-1.40;1.40;;;-0.67;100.00;96712.48;646605;212;31582;-76
2022/01/25 05:44:24;;;;;;;1.92;1.75;;;-1.50;1.40;;;-0.65;100.00;96710.47;630935;221;31613;-76
2022/01/25 05:49:34;;;;;;;1.90;1.80;;;-1.40;1.40;;;-0.71;100.00;96712.77;645743;212;32049;-76
2022/01/25 05:52:26;;;;;;;3.20;1.60;;;-1.50;1.40;;;-0.56;100.00;96707.72;618243;222;32493;-76
2022/01/25 05:55:08;;;;;;;1.35;1.15;;;-1.40;1.40;;;-0.64;100.00;96709.70;649250;216;31546;-76
2022/01/25 05:57:49;;;;;;;2.37;1.87;;;-1.40;1.40;;;-0.58;100.00;96706.41;646921;216;31571;-77
2022/01/25 06:00:31;;;;;;;5.30;2.30;;;-1.40;1.40;;;-0.63;100.00;96701.17;619560;226;32059;-77
2022/01/25 06:03:15;;;;;;;3.30;3.00;;;-1.40;1.40;;;-0.65;100.00;96702.74;647602;216;31584;-77
2022/01/25 06:05:57;;;;;;;3.08;2.08;;;-1.40;1.40;;;-0.69;100.00;96700.86;617769;225;31944;-76
2022/01/25 06:08:47;;;;;;;3.30;1.80;;;-1.50;1.40;;;-0.69;100.00;96704.12;618038;222;31897;-76
2022/01/25 06:11:35;;;;;;;5.57;2.00;;;-1.40;1.40;;;-0.80;100.00;96702.97;647334;216;31793;-76
2022/01/25 06:14:23;;;;;;;2.08;1.87;;;-1.50;1.40;;;-0.74;100.00;96706.52;642779;216;42546;-77
2022/01/25 06:17:10;;;;;;;2.80;2.40;;;-1.50;1.40;;;-0.84;100.00;96706.61;647678;212;31627;-77
2022/01/25 06:19:52;;;;;;;4.68;1.58;;;-1.60;1.40;;;-0.97;100.00;96702.30;646769;216;31782;-77
2022/01/25 06:22:34;;;;;;;3.80;2.40;;;-1.70;1.40;;;-0.87;100.00;96698.34;646887;216;31568;-76
2022/01/25 06:25:18;;;;;;;2.60;2.40;;;-1.60;1.40;;;-0.92;100.00;96696.00;647196;216;31559;-75
2022/01/25 06:28:00;;;;;;;4.35;1.50;;;-1.60;1.40;;;-0.91;100.00;96698.94;646678;216;31585;-76
2022/01/25 06:30:42;;;;;;;2.92;2.00;;;-1.60;1.40;;;-0.89;100.00;96700.41;647402;216;32142;-77
2022/01/25 06:35:52;;;;;;;5.45;2.60;;;-1.60;1.40;;;-1.08;100.00;96711.67;648328;216;31608;-76
2022/01/25 06:38:36;;;;;;;3.50;2.78;;;-1.70;1.40;;;-1.20;100.00;96706.96;646105;216;31584;-74
2022/01/25 06:41:24;;;;;;;3.62;2.55;;;-1.70;1.40;;;-1.18;100.00;96710.41;648208;216;32106;-76
2022/01/25 06:44:06;;;;;;;5.55;1.95;;;-1.70;1.40;;;-1.15;100.00;96707.29;646334;216;31980;-76
2022/01/25 06:46:48;;;;;;;1.77;1.67;;;-1.70;1.40;;;-1.22;100.00;96709.23;619274;226;32423;-76
2022/01/25 06:49:30;;;;;;;5.70;2.87;;;-1.80;1.40;;;-1.21;100.00;96712.23;648297;216;32115;-76
2022/01/25 06:52:12;;;;;;;2.70;2.50;;;-1.90;1.40;;;-1.20;100.00;96714.88;648002;216;32127;-76
2022/01/25 06:54:55;;;;;;;1.85;1.75;;;-1.80;1.40;;;-1.30;100.00;96709.72;646905;216;31540;-76
2022/01/25 06:57:43;;;;;;;2.10;1.90;;;-1.90;1.40;;;-1.28;100.00;96709.44;648090;216;31771;-76
2022/01/25 07:00:31;;;;;;;2.97;2.15;;;-1.80;1.40;;;-1.35;100.00;96714.78;645527;216;31587;-76
2022/01/25 07:03:18;;;;;;;5.30;3.00;;;-1.90;1.40;;;-1.34;100.00;96720.02;647076;216;31674;-79
2022/01/25 07:06:06;;;;;;;2.30;1.40;;;-1.90;1.40;;;-1.27;100.00;96724.92;644770;213;31721;-76
2022/01/25 07:08:48;;;;;;;5.05;2.92;;;-1.80;1.40;;;-1.23;100.00;96730.45;618519;225;32462;-76
2022/01/25 07:11:30;;;;;;;6.47;4.30;;;-1.80;1.40;;;-1.14;100.00;96731.48;647274;216;32037;-76
2022/01/25 07:14:17;;;;;;;5.85;3.25;;;-1.70;1.40;;;-1.02;100.00;96736.71;643740;215;31610;-79
2022/01/25 07:17:05;;;;;;;2.30;1.85;;;-1.70;1.40;;;-0.94;100.00;96733.81;646546;216;32003;-76
2022/01/25 07:19:48;;;;;;;3.95;1.95;;;-1.60;1.40;;;-1.10;100.00;96738.20;646013;212;42862;-75
2022/01/25 07:22:32;;;;;;;4.60;1.50;;;-1.70;1.40;;;-1.08;100.00;96736.48;646850;216;31523;-74
2022/01/25 07:25:13;;;;;;;5.37;2.55;;;-1.70;1.40;;;-0.98;100.00;96738.47;644863;216;31606;-73
2022/01/25 07:27:58;;;;;;;2.75;2.20;;;-1.70;1.40;;;-0.92;100.00;96740.42;618929;222;31953;-76
2022/01/25 07:30:40;;;;;;;5.43;2.70;;;-1.60;1.40;;;-0.80;100.00;96744.63;647274;212;31623;-75
2022/01/25 07:35:51;;;;;;;9.90;3.90;;;-1.60;1.40;;;-0.81;100.00;96738.62;645984;212;31558;-76
2022/01/25 07:38:33;;;;;;;5.85;3.90;;;-1.60;1.40;;;-0.83;100.00;96741.97;645698;212;31583;-76
2022/01/25 07:41:17;;;;;;;5.28;3.47;;;-1.60;1.40;;;-0.97;100.00;96738.44;646067;216;31564;-76
2022/01/25 07:44:01;;;;;;;5.20;2.45;;;-1.80;1.40;;;-1.01;100.00;96743.00;645938;216;42150;-76
2022/01/25 07:46:43;;;;;;;6.75;3.33;;;-1.90;1.40;;;-1.08;100.00;96743.31;646206;216;31578;-75
2022/01/25 07:49:28;;;;;;;2.60;2.35;;;-1.80;1.40;;;-1.22;100.00;96740.25;645939;216;31574;-76
2022/01/25 07:52:10;;;;;;;3.65;2.53;;;-1.80;1.40;;;-1.10;100.00;96738.07;648145;216;32227;-75
2022/01/25 07:54:51;;;;;;;5.30;2.50;;;-1.80;1.40;;;-1.01;100.00;96739.42;623020;221;31904;-74
2022/01/25 07:57:36;;;;;;;4.65;3.22;;;-1.70;1.40;;;-1.06;100.00;96740.77;648303;212;31682;-77
2022/01/25 08:00:18;;;;;;;4.30;3.87;;;-1.70;1.40;;;-0.94;100.00;96737.39;646595;212;31900;-76
2022/01/25 08:02:59;;;;;;;2.10;2.00;;;-1.70;1.40;;;-0.95;100.00;96743.20;646182;216;32727;-77
2022/01/25 08:08:19;;;;;;;3.90;2.12;;;-1.70;1.40;;;-1.13;100.00;96743.50;646228;212;31563;-75
2022/01/25 08:11:03;;;;;;;3.10;2.87;;;-1.70;1.40;;;-0.98;100.00;96747.22;644465;216;31564;-76
2022/01/25 08:13:49;;;;;;;2.70;2.50;;;-1.70;1.40;;;-0.96;100.00;96748.22;646073;212;31632;-74
2022/01/25 08:16:36;;;;;;;1.83;1.73;;;-1.70;1.40;;;-0.87;100.00;96755.00;647056;216;31595;-74
2022/01/25 08:19:18;;;;;;;3.20;2.70;;;-1.60;1.40;;;-0.68;100.00;96750.47;645458;212;31814;-76
2022/01/25 08:22:10;;;;;;;2.87;2.33;;;-1.50;1.40;;;-0.57;100.00;96751.63;648116;212;31551;-78
2022/01/25 08:24:51;;;;;;;5.30;1.70;;;-1.50;1.40;;;-0.62;100.00;96755.05;633850;220;28835;-79
2022/01/25 08:27:39;;;;;;;2.30;1.95;;;-1.70;1.40;;;-0.56;100.00;96754.92;646916;212;31591;-74
2022/01/25 08:30:23;;;;;;;3.20;2.33;;;-1.60;1.40;;;-0.71;100.00;96753.83;649510;212;31571;-79
2022/01/25 08:35:57;;;;;;;3.12;2.83;;;-1.60;1.40;;;-0.58;100.00;96755.05;647377;216;31588;-78
2022/01/25 08:38:46;;;;;;;5.55;3.58;;;-1.60;1.40;;;-0.57;100.00;96755.08;647883;212;33516;-76
2022/01/25 08:41:31;;;;;;;3.20;2.90;;;-1.60;1.40;;;-0.62;100.00;96758.05;647736;216;31702;-76
2022/01/25 08:44:10;;;;;;;1.73;1.63;;;-1.60;1.40;;;-0.37;100.00;96758.17;640753;220;23478;-76
2022/01/25 08:46:54;;;;;;;2.50;2.30;;;-1.30;1.40;;;-0.56;100.00;96757.25;623341;222;32536;-74
2022/01/25 08:49:39;;;;;;;2.20;2.10;;;-1.50;1.40;;;-0.88;100.00;96757.36;647035;212;31682;-74
2022/01/25 08:52:27;;;;;;;2.92;1.98;;;-1.70;1.40;;;-0.98;100.00;96748.88;646843;212;31544;-74
2022/01/25 08:55:11;;;;;;;2.08;1.98;;;-1.70;1.40;;;-0.90;100.00;96750.39;648394;216;31560;-76
2022/01/25 08:57:53;;;;;;;3.72;1.83;;;-1.70;1.40;;;-0.81;100.00;96760.98;644749;216;31558;-74
2022/01/25 09:00:40;;;;;;;3.03;2.75;;;-1.50;1.40;;;-0.68;100.00;96762.36;619416;226;32373;-74
2022/01/25 09:03:22;;;;;;;7.00;3.62;;;-1.50;1.40;;;-0.82;100.00;96756.57;646510;216;31607;-74
2022/01/25 09:06:10;;;;;;;2.80;2.62;;;-1.40;1.40;;;-0.58;100.00;96759.52;641405;212;32004;-79
2022/01/25 09:08:54;;;;;;;3.50;2.45;;;-1.40;1.40;;;-0.38;100.00;96761.66;646746;216;31544;-75
2022/01/25 09:11:36;;;;;;;2.65;2.45;;;-1.20;1.40;;;-0.63;100.00;96773.09;645221;216;42206;-75
2022/01/25 09:14:21;;;;;;;2.55;2.42;;;-1.40;1.40;;;-0.23;100.00;96759.91;646728;216;41864;-75
2022/01/25 09:17:03;;;;;;;3.15;2.15;;;-1.10;1.40;;;-0.34;100.00;96755.96;647576;215;42175;-74
2022/01/25 09:19:47;;;;;;;3.35;3.15;;;-1.20;1.40;;;-0.32;100.00;96751.52;646579;212;43022;-76
2022/01/25 09:22:29;;;;;;;2.67;2.47;;;-1.10;1.40;;;-0.42;100.00;96755.23;646614;212;31622;-75
2022/01/25 09:25:13;;;;;;;4.95;2.70;;;-1.30;1.40;;;-0.43;100.00;96761.05;634360;217;31913;-77
2022/01/25 09:27:59;;;;;;;3.60;2.90;;;-1.30;1.40;;;-0.48;100.00;96759.23;620065;222;32007;-79
2022/01/25 09:30:46;;;;;;;1.70;1.52;;;-1.20;1.40;;;-0.44;100.00;96761.30;646270;216;31635;-77
2022/01/25 09:35:51;;;;;;;4.32;3.08;;;-0.70;1.40;;;-0.06;100.00;96763.69;646713;216;31584;-76
2022/01/25 09:38:34;;;;;;;3.20;2.50;;;-0.90;1.40;;;0.04;100.00;96764.70;647080;212;42206;-75
2022/01/25 09:41:18;;;;;;;3.73;2.00;;;-0.80;1.40;;;0.40;100.00;96760.46;647587;213;32030;-76
2022/01/25 09:44:02;;;;;;;4.65;2.65;;;-0.70;1.40;;;0.34;100.00;96758.82;645722;212;31677;-77
2022/01/25 09:46:43;;;;;;;2.35;1.65;;;-0.70;1.40;;;-0.02;100.00;96764.10;646522;212;31563;-75
2022/01/25 09:49:27;;;;;;;3.50;3.20;;;-0.80;1.40;;;0.24;100.00;96761.58;646080;212;31598;-77
2022/01/25 09:52:08;;;;;;;3.95;2.83;;;-0.40;1.40;;;0.73;100.00;96766.28;646950;216;31580;-76
2022/01/25 09:54:54;;;;;;;2.80;2.55;;;-0.10;1.40;;;1.30;100.00;96766.70;646851;216;42866;-74
2022/01/25 09:57:38;;;;;;;3.50;2.65;;;0.40;1.40;;;1.56;100.00;96767.61;620755;226;32077;-78
2022/01/25 10:00:22;;;;;;;3.60;2.40;;;0.50;1.40;;;1.83;100.00;96772.25;645040;216;31685;-77
2022/01/25 10:03:12;;;;;;;5.50;3.78;;;1.20;1.40;;;2.41;100.00;96778.31;646926;212;31561;-77
2022/01/25 10:05:49;;;;;;;3.97;3.00;;;1.20;1.40;;;1.20;100.00;96770.91;619004;222;32004;-77
2022/01/25 10:08:30;;;;;;;4.45;2.90;;;-0.20;1.40;;;1.11;100.00;96769.78;619009;226;31960;-74
2022/01/25 10:11:12;;;;;;;3.40;1.80;;;-0.30;1.40;;;0.58;100.00;96771.63;646131;216;31741;-77
2022/01/25 10:13:56;;;;;;;2.37;2.17;;;-0.40;1.40;;;0.80;100.00;96769.19;646118;212;31567;-77
2022/01/25 10:16:36;;;;;;;4.00;3.60;;;0.00;1.40;;;0.81;100.00;96770.81;646328;212;31754;-74
2022/01/25 10:19:17;;;;;;;4.18;3.33;;;-0.20;1.40;;;0.80;100.00;96762.81;647432;212;31598;-77
2022/01/25 10:22:02;;;;;;;2.85;2.65;;;0.20;1.40;;;2.19;100.00;96755.18;646079;216;31635;-74
2022/01/25 10:25:35;;;;;;;3.70;3.40;;;2.60;1.40;;;3.24;100.00;96757.38;647884;216;42201;-77
2022/01/25 10:28:22;;;;;;;5.28;3.37;;;1.60;1.40;;;2.17;100.00;96762.23;620209;226;32085;-79
2022/01/25 10:31:10;;;;;;;5.00;4.00;;;1.10;1.40;;;3.47;100.00;96757.47;646293;212;31577;-77
2022/01/25 10:35:51;;;;;;;5.07;3.30;;;1.90;1.40;;;4.40;100.00;96750.42;646842;216;31566;-77
2022/01/25 10:38:39;;;;;;;5.30;3.90;;;4.20;1.40;;;8.41;100.00;96738.78;646663;216;42211;-79
2022/01/25 10:41:23;;;;;;;6.60;4.50;;;8.50;1.40;;;10.26;99.12;96733.33;646764;212;31605;-75
2022/01/25 10:44:05;;;;;;;4.60;3.93;;;8.80;1.40;;;10.88;87.95;96728.30;619647;226;31990;-75
2022/01/25 10:46:53;;;;;;;5.30;3.40;;;8.70;1.40;;;12.95;89.86;96725.48;648072;216;32500;-79
2022/01/25 10:49:34;;;;;;;4.43;2.90;;;9.20;1.40;;;11.30;73.76;96725.78;621381;222;32071;-80
2022/01/25 10:52:24;;;;;;;4.80;3.20;;;7.90;1.40;;;13.18;75.95;96717.44;645943;212;32108;-75
2022/01/25 10:55:05;;;;;;;4.00;2.93;;;9.40;1.40;;;12.20;72.61;96721.91;647081;216;31696;-75
2022/01/25 10:57:53;;;;;;;5.30;3.80;;;8.10;1.40;;;13.22;78.43;96711.32;646773;215;31646;-76
2022/01/25 11:00:35;;;;;;;5.68;3.95;;;9.10;1.40;;;13.42;71.69;96707.14;645778;216;31714;-75
2022/01/25 11:03:25;;;;;;;4.27;3.67;;;9.80;1.40;;;13.97;68.20;96704.94;647746;216;31635;-75
2022/01/25 11:06:12;;;;;;;3.87;3.03;;;9.80;1.40;;;13.52;70.82;96701.61;645591;216;42367;-76
2022/01/25 11:09:00;;;;;;;4.78;3.40;;;9.90;1.40;;;13.17;65.43;96699.83;646365;216;31539;-76
2022/01/25 11:11:41;;;;;;;3.90;3.30;;;9.50;1.40;;;15.82;61.66;96693.93;646178;216;31608;-76
2022/01/25 11:17:08;;;;;;;4.32;3.40;;;9.60;1.40;;;12.50;61.70;96692.02;647149;216;31669;-75
2022/01/25 11:19:50;;;;;;;4.18;3.40;;;8.20;1.40;;;12.48;64.86;96689.15;646185;215;32116;-75
2022/01/25 11:22:32;;;;;;;5.62;3.40;;;8.40;1.40;;;13.67;63.68;96685.36;646546;216;31750;-76
2022/01/25 11:25:13;;;;;;;5.30;3.58;;;10.10;1.40;;;15.38;62.39;96684.87;646584;216;32122;-75
2022/01/25 11:27:57;;;;;;;4.45;3.40;;;10.90;1.40;;;16.29;61.11;96681.08;646863;216;32560;-75
2022/01/25 11:30:40;;;;;;;4.07;3.47;;;11.30;1.40;;;14.67;54.48;96685.57;645349;216;34350;-75
2022/01/25 11:35:51;;;;;;;3.95;3.37;;;10.50;1.40;;;16.48;59.84;96680.14;645723;215;31580;-75
2022/01/25 11:38:43;;;;;;;4.47;3.12;;;11.60;1.40;;;18.97;53.81;96675.30;619923;226;32542;-79
2022/01/25 11:41:30;;;;;;;4.32;3.15;;;12.70;1.40;;;20.71;47.38;96671.77;645435;216;31575;-75
2022/01/25 11:44:12;;;;;;;3.62;2.62;;;14.00;1.40;;;19.73;45.26;96675.31;619121;226;32044;-75
2022/01/25 11:46:56;;;;;;;4.15;3.37;;;13.10;1.40;;;20.32;47.48;96675.45;618320;226;31895;-75
2022/01/25 11:49:50;;;;;;;3.78;3.22;;;13.20;1.40;;;19.36;49.69;96668.09;645973;216;31600;-76
2022/01/25 11:52:32;;;;;;;3.58;2.70;;;13.10;1.40;;;20.59;61.10;96656.02;647505;212;31547;-76
2022/01/25 11:55:22;;;;;;;3.53;3.15;;;12.10;1.40;;;19.73;40.91;96662.15;646442;212;31588;-76
2022/01/25 11:58:08;;;;;;;3.28;2.92;;;12.40;1.40;;;18.95;44.27;96652.47;646783;216;31949;-75
2022/01/25 12:00:51;;;;;;;3.83;3.10;;;12.60;1.40;;;19.23;46.89;96655.50;645099;216;32076;-76
2022/01/25 12:03:38;;;;;;;4.15;3.55;;;12.60;1.40;;;18.56;45.61;96654.56;646056;212;31625;-76
2022/01/25 12:06:22;;;;;;;4.07;3.28;;;12.10;1.40;;;18.04;46.20;96652.20;644706;212;32096;-76
2022/01/25 12:09:13;;;;;;;3.58;2.58;;;12.00;1.40;;;15.51;50.14;96656.96;646624;216;31582;-75
2022/01/25 12:11:59;;;;;;;3.67;2.90;;;10.80;1.40;;;15.62;49.31;96658.48;647059;212;31603;-76
2022/01/25 12:14:41;;;;;;;4.60;3.10;;;10.50;1.40;;;14.18;50.16;96655.93;646638;216;35344;-76
2022/01/25 12:17:25;;;;;;;4.10;3.30;;;10.20;1.40;;;12.16;56.43;96656.36;645879;216;31610;-76
2022/01/25 12:20:08;;;;;;;3.45;3.00;;;8.70;1.40;;;11.83;62.87;96652.42;648081;216;32105;-75
2022/01/25 12:22:49;;;;;;;4.05;3.40;;;8.90;1.40;;;12.15;63.33;96645.70;620328;225;31967;-75
2022/01/25 12:25:36;;;;;;;5.25;3.10;;;9.40;1.40;;;12.69;59.10;96647.45;646226;212;42194;-75
2022/01/25 12:28:12;;;;;;;5.13;3.40;;;9.70;1.40;;;12.86;60.88;96636.84;647733;216;31927;-75
2022/01/25 12:31:00;;;;;;;6.30;3.75;;;10.00;1.40;;;13.83;58.75;96632.55;646487;216;31572;-75
2022/01/25 12:36:07;;;;;;;4.07;3.40;;;10.30;1.40;;;14.17;55.68;96624.31;645913;212;31695;-76
2022/01/25 12:38:49;;;;;;;4.15;3.17;;;10.80;1.40;;;14.98;54.69;96624.59;647539;212;31793;-75
2022/01/25 12:41:31;;;;;;;5.40;3.50;;;11.00;1.40;;;14.49;56.81;96614.63;646168;216;31614;-75
2022/01/25 12:44:12;;;;;;;4.47;3.60;;;10.80;1.40;;;11.86;60.60;96624.03;646688;216;33294;-75
2022/01/25 12:46:53;;;;;;;5.10;3.70;;;9.20;1.40;;;12.26;66.13;96614.67;646834;216;31640;-75
2022/01/25 12:52:17;;;;;;;4.12;3.10;;;9.40;1.40;;;12.62;61.68;96616.43;646382;212;31575;-75
2022/01/25 12:54:59;;;;;;;5.05;3.53;;;10.50;1.40;;;13.06;58.79;96616.97;646184;212;31519;-76
2022/01/25 12:57:47;;;;;;;4.50;3.42;;;10.00;1.40;;;13.36;60.95;96609.55;646207;212;31575;-75
2022/01/25 13:00:31;;;;;;;5.07;4.12;;;9.90;1.40;;;13.41;58.97;96604.88;645742;216;31566;-75
2022/01/25 13:03:14;;;;;;;7.93;4.30;;;9.80;1.40;;;13.22;61.26;96608.10;646155;216;31678;-75
2022/01/25 13:06:02;;;;;;;3.53;3.00;;;10.50;1.40;;;13.43;60.17;96607.36;645667;212;42274;-75
2022/01/25 13:08:50;;;;;;;4.50;3.45;;;11.00;1.40;;;13.42;59.84;96607.75;646760;216;31579;-75
2022/01/25 13:11:41;;;;;;;4.25;3.42;;;11.00;1.40;;;14.09;55.39;96600.75;618193;226;32740;-75
2022/01/25 13:14:31;;;;;;;4.12;3.40;;;11.90;1.40;;;13.76;55.97;96604.95;619493;226;31973;-75
2022/01/25 13:17:20;;;;;;;4.80;3.47;;;11.20;1.40;;;14.76;55.15;96598.62;646261;216;31929;-75
2022/01/25 13:20:03;;;;;;;5.87;4.00;;;11.80;1.40;;;14.69;54.03;96600.22;647203;216;31680;-76
2022/01/25 13:22:45;;;;;;;5.18;3.80;;;12.40;1.40;;;15.40;52.90;96597.38;646158;216;32126;-75
2022/01/25 13:25:32;;;;;;;4.50;4.10;;;12.20;1.40;;;15.83;50.87;96585.89;618290;222;32841;-75
2022/01/25 13:28:20;;;;;;;5.90;3.87;;;13.20;1.40;;;16.89;47.73;96580.00;646999;212;31592;-75
2022/01/25 13:30:50;;;;;;;7.28;4.12;;;12.90;1.40;;;16.55;47.42;96578.78;647708;212;32219;-75
2022/01/25 13:35:56;;;;;;;4.68;4.12;;;13.20;1.40;;;16.08;48.16;96586.45;646468;212;32147;-75